sensor_id;sensor_type;location;lat;lon;timestamp;pressure;altitude;pressure_sealevel;temperature;humidity
19624;BME280;9959;49.798;9.928;2023-03-23T00:02:03;98925.28;;;13.20;58.90
19624;BME280;9959;49.798;9.928;2023-03-23T00:04:30;98928.03;;;13.59;56.62
19624;BME280;9959;49.798;9.928;2023-03-23T00:06:57;98930.03;;;13.69;56.21
19624;BME280;9959;49.798;9.928;2023-03-23T00:09:24;98926.97;;;13.60;56.28
19624;BME280;9959;49.798;9.928;2023-03-23T00:11:51;98929.53;;;13.72;56.05
19624;BME280;9959;49.798;9.928;2023-03-23T00:14:19;98928.69;;;13.88;55.75
19624;BME280;9959;49.798;9.928;2023-03-23T00:16:49;98930.84;;;13.86;55.69
19624;BME280;9959;49.798;9.928;2023-03-23T00:19:17;98934.13;;;13.71;56.58
19624;BME280;9959;49.798;9.928;2023-03-23T00:21:46;98914.31;;;13.66;56.80
19624;BME280;9959;49.798;9.928;2023-03-23T00:24:17;98917.63;;;13.51;57.46
19624;BME280;9959;49.798;9.928;2023-03-23T00:26:45;98913.63;;;13.75;56.58
19624;BME280;9959;49.798;9.928;2023-03-23T00:29:22;98913.13;;;13.78;56.46
19624;BME280;9959;49.798;9.928;2023-03-23T00:31:49;98919.91;;;13.59;56.97
19624;BME280;9959;49.798;9.928;2023-03-23T00:34:19;98918.91;;;13.65;56.74
19624;BME280;9959;49.798;9.928;2023-03-23T00:36:52;98921.06;;;13.63;56.87
19624;BME280;9959;49.798;9.928;2023-03-23T00:39:19;98911.38;;;13.50;57.71
19624;BME280;9959;49.798;9.928;2023-03-23T00:41:47;98912.28;;;13.56;57.59
19624;BME280;9959;49.798;9.928;2023-03-23T00:44:14;98905.16;;;13.50;57.51
19624;BME280;9959;49.798;9.928;2023-03-23T00:46:48;98909.81;;;13.54;57.29
19624;BME280;9959;49.798;9.928;2023-03-23T00:49:18;98903.19;;;13.62;56.83
19624;BME280;9959;49.798;9.928;2023-03-23T00:51:46;98897.13;;;13.55;57.10
19624;BME280;9959;49.798;9.928;2023-03-23T00:54:13;98897.59;;;13.52;57.58
19624;BME280;9959;49.798;9.928;2023-03-23T00:56:40;98900.00;;;13.48;57.88
19624;BME280;9959;49.798;9.928;2023-03-23T00:59:07;98896.97;;;13.45;57.99
19624;BME280;9959;49.798;9.928;2023-03-23T01:01:34;98900.88;;;13.54;57.50
19624;BME280;9959;49.798;9.928;2023-03-23T01:04:03;98893.94;;;13.80;55.52
19624;BME280;9959;49.798;9.928;2023-03-23T01:06:32;98892.34;;;13.62;56.62
19624;BME280;9959;49.798;9.928;2023-03-23T01:09:02;98889.41;;;13.47;57.29
19624;BME280;9959;49.798;9.928;2023-03-23T01:11:29;98889.56;;;13.57;56.94
19624;BME280;9959;49.798;9.928;2023-03-23T01:13:56;98887.34;;;13.54;56.89
19624;BME280;9959;49.798;9.928;2023-03-23T01:16:24;98890.22;;;13.64;55.98
19624;BME280;9959;49.798;9.928;2023-03-23T01:18:51;98882.38;;;13.68;55.61
19624;BME280;9959;49.798;9.928;2023-03-23T01:21:20;98878.88;;;13.67;55.77
19624;BME280;9959;49.798;9.928;2023-03-23T01:23:47;98874.72;;;13.81;54.88
19624;BME280;9959;49.798;9.928;2023-03-23T01:26:18;98872.94;;;13.70;55.38
19624;BME280;9959;49.798;9.928;2023-03-23T01:28:46;98872.59;;;13.83;54.70
19624;BME280;9959;49.798;9.928;2023-03-23T01:31:22;98864.91;;;13.75;54.61
19624;BME280;9959;49.798;9.928;2023-03-23T01:33:50;98851.69;;;13.79;54.93
19624;BME280;9959;49.798;9.928;2023-03-23T01:36:23;98861.00;;;13.66;55.70
19624;BME280;9959;49.798;9.928;2023-03-23T01:38:53;98856.91;;;13.64;55.54
19624;BME280;9959;49.798;9.928;2023-03-23T01:41:21;98841.00;;;13.67;55.06
19624;BME280;9959;49.798;9.928;2023-03-23T01:46:20;98839.22;;;13.56;55.97
19624;BME280;9959;49.798;9.928;2023-03-23T01:48:50;98833.03;;;13.39;56.70
19624;BME280;9959;49.798;9.928;2023-03-23T01:51:19;98828.88;;;13.53;55.70
19624;BME280;9959;49.798;9.928;2023-03-23T01:53:55;98836.16;;;13.31;56.94
19624;BME280;9959;49.798;9.928;2023-03-23T01:56:26;98830.59;;;13.20;57.73
19624;BME280;9959;49.798;9.928;2023-03-23T01:58:56;98823.88;;;13.23;57.49
19624;BME280;9959;49.798;9.928;2023-03-23T02:01:23;98826.16;;;13.14;57.85
19624;BME280;9959;49.798;9.928;2023-03-23T02:03:55;98821.75;;;13.08;58.65
19624;BME280;9959;49.798;9.928;2023-03-23T02:06:23;98824.22;;;12.93;59.23
19624;BME280;9959;49.798;9.928;2023-03-23T02:08:51;98823.41;;;12.93;59.49
19624;BME280;9959;49.798;9.928;2023-03-23T02:11:21;98827.34;;;12.85;60.10
19624;BME280;9959;49.798;9.928;2023-03-23T02:13:49;98824.56;;;12.80;60.58
19624;BME280;9959;49.798;9.928;2023-03-23T02:18:58;98826.50;;;13.01;59.04
19624;BME280;9959;49.798;9.928;2023-03-23T02:30:00;98815.03;;;13.28;55.95
19624;BME280;9959;49.798;9.928;2023-03-23T02:35:39;98808.75;;;13.44;54.91
19624;BME280;9959;49.798;9.928;2023-03-23T02:38:21;98814.28;;;13.32;55.78
19624;BME280;9959;49.798;9.928;2023-03-23T02:40:50;98803.72;;;13.31;55.26
19624;BME280;9959;49.798;9.928;2023-03-23T02:43:21;98805.19;;;13.21;55.88
19624;BME280;9959;49.798;9.928;2023-03-23T02:46:01;98801.06;;;13.36;55.41
19624;BME280;9959;49.798;9.928;2023-03-23T02:48:33;98802.06;;;13.30;55.00
19624;BME280;9959;49.798;9.928;2023-03-23T02:51:03;98799.78;;;13.21;55.35
19624;BME280;9959;49.798;9.928;2023-03-23T02:53:33;98801.75;;;13.26;55.09
19624;BME280;9959;49.798;9.928;2023-03-23T02:56:03;98802.81;;;13.08;55.70
19624;BME280;9959;49.798;9.928;2023-03-23T02:58:33;98792.44;;;13.00;56.17
19624;BME280;9959;49.798;9.928;2023-03-23T03:03:33;98787.84;;;13.01;56.01
19624;BME280;9959;49.798;9.928;2023-03-23T03:08:52;98786.66;;;13.13;55.63
19624;BME280;9959;49.798;9.928;2023-03-23T03:11:21;98798.41;;;13.02;56.28
19624;BME280;9959;49.798;9.928;2023-03-23T03:14:02;98800.94;;;12.92;56.38
19624;BME280;9959;49.798;9.928;2023-03-23T03:16:37;98807.00;;;12.99;56.59
19624;BME280;9959;49.798;9.928;2023-03-23T03:19:17;98807.03;;;12.82;57.38
19624;BME280;9959;49.798;9.928;2023-03-23T03:21:48;98809.56;;;12.89;57.20
19624;BME280;9959;49.798;9.928;2023-03-23T03:24:18;98802.00;;;12.91;56.69
19624;BME280;9959;49.798;9.928;2023-03-23T03:26:50;98809.63;;;12.94;56.75
19624;BME280;9959;49.798;9.928;2023-03-23T03:29:21;98797.50;;;12.97;56.31
19624;BME280;9959;49.798;9.928;2023-03-23T03:31:51;98793.06;;;13.07;55.92
19624;BME280;9959;49.798;9.928;2023-03-23T03:34:22;98790.78;;;12.99;56.33
19624;BME280;9959;49.798;9.928;2023-03-23T03:36:52;98792.75;;;12.87;56.95
19624;BME280;9959;49.798;9.928;2023-03-23T03:39:22;98792.25;;;12.90;56.53
19624;BME280;9959;49.798;9.928;2023-03-23T03:41:49;98778.19;;;12.88;57.13
19624;BME280;9959;49.798;9.928;2023-03-23T03:44:16;98786.53;;;12.86;57.14
19624;BME280;9959;49.798;9.928;2023-03-23T03:46:43;98789.50;;;12.85;57.39
19624;BME280;9959;49.798;9.928;2023-03-23T03:49:11;98783.28;;;12.68;58.16
19624;BME280;9959;49.798;9.928;2023-03-23T03:51:40;98779.03;;;12.72;58.18
19624;BME280;9959;49.798;9.928;2023-03-23T03:54:07;98782.31;;;12.74;57.93
19624;BME280;9959;49.798;9.928;2023-03-23T03:56:34;98782.78;;;12.71;58.18
19624;BME280;9959;49.798;9.928;2023-03-23T03:59:03;98782.03;;;12.59;59.03
19624;BME280;9959;49.798;9.928;2023-03-23T04:01:30;98782.81;;;12.54;59.44
19624;BME280;9959;49.798;9.928;2023-03-23T04:03:57;98784.59;;;12.48;60.22
19624;BME280;9959;49.798;9.928;2023-03-23T04:06:24;98784.03;;;12.46;59.91
19624;BME280;9959;49.798;9.928;2023-03-23T04:08:55;98786.72;;;12.46;60.45
19624;BME280;9959;49.798;9.928;2023-03-23T04:11:30;98774.78;;;12.42;60.95
19624;BME280;9959;49.798;9.928;2023-03-23T04:13:58;98786.72;;;12.46;59.93
19624;BME280;9959;49.798;9.928;2023-03-23T04:16:26;98781.66;;;12.50;59.89
19624;BME280;9959;49.798;9.928;2023-03-23T04:18:56;98782.13;;;12.47;59.89
19624;BME280;9959;49.798;9.928;2023-03-23T04:21:23;98782.13;;;12.47;60.14
19624;BME280;9959;49.798;9.928;2023-03-23T04:23:56;98782.47;;;12.50;59.74
19624;BME280;9959;49.798;9.928;2023-03-23T04:26:27;98786.25;;;12.49;59.87
19624;BME280;9959;49.798;9.928;2023-03-23T04:28:55;98778.38;;;12.48;60.15
19624;BME280;9959;49.798;9.928;2023-03-23T04:31:22;98783.53;;;12.49;60.44
19624;BME280;9959;49.798;9.928;2023-03-23T04:33:52;98787.22;;;12.43;60.39
19624;BME280;9959;49.798;9.928;2023-03-23T04:36:25;98798.50;;;12.40;61.08
19624;BME280;9959;49.798;9.928;2023-03-23T04:39:13;98790.78;;;12.32;61.31
19624;BME280;9959;49.798;9.928;2023-03-23T04:41:40;98781.63;;;12.33;61.77
19624;BME280;9959;49.798;9.928;2023-03-23T04:44:07;98788.84;;;12.28;61.68
19624;BME280;9959;49.798;9.928;2023-03-23T04:46:34;98780.50;;;12.29;62.27
19624;BME280;9959;49.798;9.928;2023-03-23T04:49:01;98786.06;;;12.39;61.64
19624;BME280;9959;49.798;9.928;2023-03-23T04:51:29;98781.56;;;12.28;62.10
19624;BME280;9959;49.798;9.928;2023-03-23T04:53:57;98784.75;;;12.25;62.11
19624;BME280;9959;49.798;9.928;2023-03-23T04:56:24;98786.38;;;12.26;62.25
19624;BME280;9959;49.798;9.928;2023-03-23T04:58:51;98784.25;;;12.28;62.44
19624;BME280;9959;49.798;9.928;2023-03-23T05:01:18;98785.13;;;12.17;63.25
19624;BME280;9959;49.798;9.928;2023-03-23T05:03:45;98774.72;;;12.09;63.77
19624;BME280;9959;49.798;9.928;2023-03-23T05:06:12;98795.75;;;12.07;63.96
19624;BME280;9959;49.798;9.928;2023-03-23T05:08:39;98790.81;;;12.04;64.65
19624;BME280;9959;49.798;9.928;2023-03-23T05:11:06;98790.28;;;12.02;65.07
19624;BME280;9959;49.798;9.928;2023-03-23T05:13:33;98798.63;;;12.00;65.29
19624;BME280;9959;49.798;9.928;2023-03-23T05:16:04;98799.00;;;11.92;65.87
19624;BME280;9959;49.798;9.928;2023-03-23T05:18:30;98801.34;;;11.89;66.06
19624;BME280;9959;49.798;9.928;2023-03-23T05:21:00;98800.88;;;11.92;66.00
19624;BME280;9959;49.798;9.928;2023-03-23T05:23:28;98800.63;;;11.93;66.36
19624;BME280;9959;49.798;9.928;2023-03-23T05:25:58;98795.56;;;11.97;65.87
19624;BME280;9959;49.798;9.928;2023-03-23T05:28:27;98791.81;;;11.98;66.38
19624;BME280;9959;49.798;9.928;2023-03-23T05:30:55;98809.66;;;11.99;68.23
19624;BME280;9959;49.798;9.928;2023-03-23T05:33:22;98803.66;;;11.97;70.65
19624;BME280;9959;49.798;9.928;2023-03-23T05:35:49;98797.22;;;11.98;72.07
19624;BME280;9959;49.798;9.928;2023-03-23T05:38:16;98806.47;;;12.02;70.32
19624;BME280;9959;49.798;9.928;2023-03-23T05:40:44;98804.63;;;12.19;69.73
19624;BME280;9959;49.798;9.928;2023-03-23T05:43:11;98809.72;;;12.04;73.81
19624;BME280;9959;49.798;9.928;2023-03-23T05:45:38;98809.72;;;12.04;72.07
19624;BME280;9959;49.798;9.928;2023-03-23T05:48:06;98820.00;;;11.90;75.21
19624;BME280;9959;49.798;9.928;2023-03-23T05:50:33;98824.72;;;11.83;77.08
19624;BME280;9959;49.798;9.928;2023-03-23T05:53:01;98828.84;;;11.62;79.23
19624;BME280;9959;49.798;9.928;2023-03-23T05:55:30;98820.31;;;11.53;79.30
19624;BME280;9959;49.798;9.928;2023-03-23T05:57:58;98833.09;;;11.58;78.87
19624;BME280;9959;49.798;9.928;2023-03-23T06:00:25;98838.59;;;11.51;82.10
19624;BME280;9959;49.798;9.928;2023-03-23T06:02:56;98841.28;;;11.63;79.92
19624;BME280;9959;49.798;9.928;2023-03-23T06:05:23;98834.50;;;11.49;80.21
19624;BME280;9959;49.798;9.928;2023-03-23T06:07:52;98841.69;;;11.32;78.75
19624;BME280;9959;49.798;9.928;2023-03-23T06:10:20;98843.91;;;11.35;81.40
19624;BME280;9959;49.798;9.928;2023-03-23T06:12:49;98836.75;;;11.40;83.17
19624;BME280;9959;49.798;9.928;2023-03-23T06:15:17;98843.44;;;11.38;83.55
19624;BME280;9959;49.798;9.928;2023-03-23T06:17:44;98843.56;;;11.43;84.24
19624;BME280;9959;49.798;9.928;2023-03-23T06:20:11;98845.44;;;11.42;84.37
19624;BME280;9959;49.798;9.928;2023-03-23T06:22:39;98842.88;;;11.36;82.23
19624;BME280;9959;49.798;9.928;2023-03-23T06:25:08;98849.53;;;11.45;83.15
19624;BME280;9959;49.798;9.928;2023-03-23T06:27:35;98849.53;;;11.45;84.40
19624;BME280;9959;49.798;9.928;2023-03-23T06:30:03;98843.69;;;11.48;83.30
19624;BME280;9959;49.798;9.928;2023-03-23T06:32:31;98846.94;;;11.50;83.57
19624;BME280;9959;49.798;9.928;2023-03-23T06:34:59;98846.47;;;11.53;82.67
19624;BME280;9959;49.798;9.928;2023-03-23T06:37:26;98842.00;;;11.59;84.70
19624;BME280;9959;49.798;9.928;2023-03-23T06:39:52;98848.31;;;11.64;85.64
19624;BME280;9959;49.798;9.928;2023-03-23T06:42:22;98855.38;;;11.65;83.08
19624;BME280;9959;49.798;9.928;2023-03-23T06:44:51;98861.81;;;11.64;84.25
19624;BME280;9959;49.798;9.928;2023-03-23T06:47:18;98861.47;;;11.49;81.49
19624;BME280;9959;49.798;9.928;2023-03-23T06:49:45;98866.16;;;11.65;84.97
19624;BME280;9959;49.798;9.928;2023-03-23T06:52:12;98864.38;;;11.71;83.22
19624;BME280;9959;49.798;9.928;2023-03-23T06:54:38;98871.06;;;11.80;82.39
19624;BME280;9959;49.798;9.928;2023-03-23T06:57:07;98861.69;;;11.82;82.79
19624;BME280;9959;49.798;9.928;2023-03-23T06:59:35;98875.97;;;11.95;78.80
19624;BME280;9959;49.798;9.928;2023-03-23T07:02:01;98874.44;;;12.27;75.04
19624;BME280;9959;49.798;9.928;2023-03-23T07:04:29;98862.84;;;12.43;74.60
19624;BME280;9959;49.798;9.928;2023-03-23T07:06:55;98869.91;;;12.44;74.33
19624;BME280;9959;49.798;9.928;2023-03-23T07:09:22;98870.91;;;12.72;69.64
19624;BME280;9959;49.798;9.928;2023-03-23T07:12:08;98868.88;;;12.79;69.31
19624;BME280;9959;49.798;9.928;2023-03-23T07:14:35;98871.56;;;12.79;70.82
19624;BME280;9959;49.798;9.928;2023-03-23T07:17:03;98876.66;;;12.92;67.92
19624;BME280;9959;49.798;9.928;2023-03-23T07:19:30;98878.94;;;13.00;67.05
19624;BME280;9959;49.798;9.928;2023-03-23T07:21:57;98877.63;;;13.03;67.03
19624;BME280;9959;49.798;9.928;2023-03-23T07:24:24;98875.75;;;13.20;63.86
19624;BME280;9959;49.798;9.928;2023-03-23T07:26:51;98894.38;;;13.16;65.85
19624;BME280;9959;49.798;9.928;2023-03-23T07:29:18;98892.25;;;13.18;65.13
19624;BME280;9959;49.798;9.928;2023-03-23T07:31:45;98884.22;;;13.24;64.93
19624;BME280;9959;49.798;9.928;2023-03-23T07:34:12;98898.16;;;13.32;63.26
19624;BME280;9959;49.798;9.928;2023-03-23T07:36:40;98889.28;;;13.37;62.23
19624;BME280;9959;49.798;9.928;2023-03-23T07:39:07;98894.69;;;13.37;62.60
19624;BME280;9959;49.798;9.928;2023-03-23T07:41:34;98884.00;;;13.47;62.47
19624;BME280;9959;49.798;9.928;2023-03-23T07:44:01;98882.44;;;13.51;61.41
19624;BME280;9959;49.798;9.928;2023-03-23T07:46:28;98892.03;;;13.59;61.43
19624;BME280;9959;49.798;9.928;2023-03-23T07:48:54;98879.97;;;13.66;61.55
19624;BME280;9959;49.798;9.928;2023-03-23T07:51:23;98878.13;;;13.72;61.40
19624;BME280;9959;49.798;9.928;2023-03-23T07:53:50;98896.25;;;13.71;61.99
19624;BME280;9959;49.798;9.928;2023-03-23T07:56:18;98882.78;;;13.76;61.49
19624;BME280;9959;49.798;9.928;2023-03-23T07:58:46;98897.88;;;13.72;61.86
19624;BME280;9959;49.798;9.928;2023-03-23T08:01:13;98899.53;;;13.73;62.10
19624;BME280;9959;49.798;9.928;2023-03-23T08:03:40;98898.38;;;13.69;62.76
19624;BME280;9959;49.798;9.928;2023-03-23T08:06:08;98905.38;;;13.65;62.96
19624;BME280;9959;49.798;9.928;2023-03-23T08:08:35;98894.03;;;13.68;64.34
19624;BME280;9959;49.798;9.928;2023-03-23T08:11:03;98916.81;;;13.50;66.53
19624;BME280;9959;49.798;9.928;2023-03-23T08:13:30;98912.56;;;13.38;67.70
19624;BME280;9959;49.798;9.928;2023-03-23T08:15:57;98913.47;;;13.27;68.87
19624;BME280;9959;49.798;9.928;2023-03-23T08:18:24;98913.28;;;13.16;72.04
19624;BME280;9959;49.798;9.928;2023-03-23T08:20:51;98923.69;;;13.08;74.14
19624;BME280;9959;49.798;9.928;2023-03-23T08:23:20;98929.44;;;13.11;71.42
19624;BME280;9959;49.798;9.928;2023-03-23T08:25:48;98926.66;;;13.06;71.40
19624;BME280;9959;49.798;9.928;2023-03-23T08:28:17;98933.03;;;13.00;72.27
19624;BME280;9959;49.798;9.928;2023-03-23T08:30:44;98942.19;;;12.99;73.07
19624;BME280;9959;49.798;9.928;2023-03-23T08:33:11;98920.09;;;13.02;72.01
19624;BME280;9959;49.798;9.928;2023-03-23T08:35:38;98943.66;;;12.90;74.60
19624;BME280;9959;49.798;9.928;2023-03-23T08:38:05;98950.13;;;12.89;75.14
19624;BME280;9959;49.798;9.928;2023-03-23T08:40:32;98940.47;;;12.93;74.08
19624;BME280;9959;49.798;9.928;2023-03-23T08:42:59;98949.53;;;12.87;75.14
19624;BME280;9959;49.798;9.928;2023-03-23T08:45:26;98957.75;;;12.92;74.77
19624;BME280;9959;49.798;9.928;2023-03-23T08:47:54;98951.13;;;12.83;77.78
19624;BME280;9959;49.798;9.928;2023-03-23T08:50:24;98948.56;;;12.76;78.69
19624;BME280;9959;49.798;9.928;2023-03-23T08:52:53;98951.94;;;12.83;77.24
19624;BME280;9959;49.798;9.928;2023-03-23T08:55:21;98953.66;;;12.89;76.98
19624;BME280;9959;49.798;9.928;2023-03-23T08:57:48;98949.06;;;12.90;79.82
19624;BME280;9959;49.798;9.928;2023-03-23T09:00:17;98951.38;;;12.98;77.02
19624;BME280;9959;49.798;9.928;2023-03-23T09:02:47;98951.56;;;13.08;77.73
19624;BME280;9959;49.798;9.928;2023-03-23T09:05:16;98942.06;;;13.06;76.20
19624;BME280;9959;49.798;9.928;2023-03-23T09:07:45;98950.41;;;13.04;76.00
19624;BME280;9959;49.798;9.928;2023-03-23T09:10:14;98945.81;;;13.05;74.80
19624;BME280;9959;49.798;9.928;2023-03-23T09:12:42;98955.00;;;13.04;75.16
19624;BME280;9959;49.798;9.928;2023-03-23T09:15:11;98959.59;;;13.03;75.66
19624;BME280;9959;49.798;9.928;2023-03-23T09:17:44;98966.06;;;13.02;75.55
19624;BME280;9959;49.798;9.928;2023-03-23T09:20:13;98973.34;;;13.02;74.60
19624;BME280;9959;49.798;9.928;2023-03-23T09:22:43;98972.53;;;13.01;74.94
19624;BME280;9959;49.798;9.928;2023-03-23T09:25:13;98975.66;;;13.10;75.20
19624;BME280;9959;49.798;9.928;2023-03-23T09:27:41;98978.66;;;13.13;74.68
19624;BME280;9959;49.798;9.928;2023-03-23T09:30:11;98971.56;;;13.41;74.70
19624;BME280;9959;49.798;9.928;2023-03-23T09:32:38;98967.88;;;13.47;74.68
19624;BME280;9959;49.798;9.928;2023-03-23T09:35:07;98977.56;;;13.43;73.96
19624;BME280;9959;49.798;9.928;2023-03-23T09:37:40;98980.94;;;13.67;73.68
19624;BME280;9959;49.798;9.928;2023-03-23T09:40:12;98981.75;;;13.67;73.30
19624;BME280;9959;49.798;9.928;2023-03-23T09:51:37;98999.94;;;13.55;73.56
19624;BME280;9959;49.798;9.928;2023-03-23T09:54:22;99006.19;;;13.55;73.41
19624;BME280;9959;49.798;9.928;2023-03-23T09:56:51;99007.81;;;13.57;74.09
19624;BME280;9959;49.798;9.928;2023-03-23T09:59:23;99016.19;;;13.55;73.27
19624;BME280;9959;49.798;9.928;2023-03-23T10:01:55;99013.72;;;13.53;73.48
19624;BME280;9959;49.798;9.928;2023-03-23T10:04:37;99007.81;;;13.73;72.57
19624;BME280;9959;49.798;9.928;2023-03-23T10:07:16;99001.47;;;13.84;73.11
19624;BME280;9959;49.798;9.928;2023-03-23T10:09:46;99008.13;;;13.94;71.69
19624;BME280;9959;49.798;9.928;2023-03-23T10:20:50;99025.03;;;13.84;70.86
19624;BME280;9959;49.798;9.928;2023-03-23T10:25:59;99016.28;;;13.99;70.18
19624;BME280;9959;49.798;9.928;2023-03-23T10:28:39;99009.88;;;14.05;69.24
19624;BME280;9959;49.798;9.928;2023-03-23T10:31:13;99018.03;;;14.43;68.63
19624;BME280;9959;49.798;9.928;2023-03-23T10:33:48;99005.38;;;14.32;67.27
19624;BME280;9959;49.798;9.928;2023-03-23T10:36:23;99017.28;;;14.31;67.35
19624;BME280;9959;49.798;9.928;2023-03-23T10:39:04;99015.06;;;14.45;67.17
19624;BME280;9959;49.798;9.928;2023-03-23T10:41:30;99015.56;;;14.42;64.81
19624;BME280;9959;49.798;9.928;2023-03-23T10:43:57;99004.06;;;14.56;64.88
19624;BME280;9959;49.798;9.928;2023-03-23T10:49:12;98988.81;;;14.99;62.71
19624;BME280;9959;49.798;9.928;2023-03-23T10:51:42;98997.72;;;14.95;62.73
19624;BME280;9959;49.798;9.928;2023-03-23T10:54:10;98987.38;;;15.18;61.25
19624;BME280;9959;49.798;9.928;2023-03-23T10:56:42;98991.19;;;15.91;58.13
19624;BME280;9959;49.798;9.928;2023-03-23T10:59:29;99002.19;;;15.38;60.86
19624;BME280;9959;49.798;9.928;2023-03-23T11:02:00;99001.34;;;15.64;59.84
19624;BME280;9959;49.798;9.928;2023-03-23T11:04:30;98995.38;;;15.67;59.51
19624;BME280;9959;49.798;9.928;2023-03-23T11:06:59;98983.63;;;15.99;59.30
19624;BME280;9959;49.798;9.928;2023-03-23T11:09:36;99002.31;;;15.85;59.30
19624;BME280;9959;49.798;9.928;2023-03-23T11:12:03;98993.44;;;15.63;59.38
19624;BME280;9959;49.798;9.928;2023-03-23T11:14:33;99007.28;;;15.61;60.08
19624;BME280;9959;49.798;9.928;2023-03-23T11:17:04;99004.16;;;15.79;59.36
19624;BME280;9959;49.798;9.928;2023-03-23T11:19:41;99013.44;;;15.51;59.08
19624;BME280;9959;49.798;9.928;2023-03-23T11:22:29;99007.19;;;15.51;59.39
19624;BME280;9959;49.798;9.928;2023-03-23T11:25:04;99007.97;;;15.78;58.25
19624;BME280;9959;49.798;9.928;2023-03-23T11:27:30;99015.97;;;15.63;58.81
19624;BME280;9959;49.798;9.928;2023-03-23T11:32:32;99000.69;;;15.84;57.87
19624;BME280;9959;49.798;9.928;2023-03-23T11:35:00;99016.81;;;15.37;58.60
19624;BME280;9959;49.798;9.928;2023-03-23T11:37:42;99012.28;;;15.74;57.97
19624;BME280;9959;49.798;9.928;2023-03-23T11:42:41;99008.22;;;15.45;58.55
19624;BME280;9959;49.798;9.928;2023-03-23T11:45:37;99027.63;;;15.00;60.08
19624;BME280;9959;49.798;9.928;2023-03-23T11:48:44;99016.09;;;15.14;60.13
19624;BME280;9959;49.798;9.928;2023-03-23T11:53:50;99017.97;;;15.14;60.58
19624;BME280;9959;49.798;9.928;2023-03-23T11:56:27;99017.41;;;15.12;61.96
19624;BME280;9959;49.798;9.928;2023-03-23T11:58:56;99006.22;;;15.30;61.10
19624;BME280;9959;49.798;9.928;2023-03-23T12:01:47;99007.59;;;15.38;61.19
19624;BME280;9959;49.798;9.928;2023-03-23T12:04:41;99019.31;;;14.84;63.35
19624;BME280;9959;49.798;9.928;2023-03-23T12:07:31;99018.56;;;14.67;64.49
19624;BME280;9959;49.798;9.928;2023-03-23T12:15:34;99028.38;;;14.46;65.48
19624;BME280;9959;49.798;9.928;2023-03-23T12:26:35;99022.19;;;14.34;67.45
19624;BME280;9959;49.798;9.928;2023-03-23T12:37:01;99022.03;;;14.02;71.32
19624;BME280;9959;49.798;9.928;2023-03-23T12:42:36;99029.16;;;14.08;72.23
19624;BME280;9959;49.798;9.928;2023-03-23T12:50:33;98987.00;;;15.42;66.80
19624;BME280;9959;49.798;9.928;2023-03-23T12:55:44;98989.69;;;15.37;65.50
19624;BME280;9959;49.798;9.928;2023-03-23T12:58:15;98992.50;;;15.47;65.86
19624;BME280;9959;49.798;9.928;2023-03-23T13:00:55;98968.25;;;15.72;64.37
19624;BME280;9959;49.798;9.928;2023-03-23T13:03:35;98969.09;;;16.25;63.23
19624;BME280;9959;49.798;9.928;2023-03-23T13:08:37;98950.69;;;15.48;64.94
19624;BME280;9959;49.798;9.928;2023-03-23T13:13:47;98951.91;;;15.62;65.05
19624;BME280;9959;49.798;9.928;2023-03-23T13:24:27;98926.97;;;15.70;64.33
19624;BME280;9959;49.798;9.928;2023-03-23T13:26:55;98923.91;;;16.14;63.03
19624;BME280;9959;49.798;9.928;2023-03-23T13:29:24;98932.25;;;15.92;63.97
19624;BME280;9959;49.798;9.928;2023-03-23T13:32:05;98923.91;;;16.04;63.43
19624;BME280;9959;49.798;9.928;2023-03-23T13:34:35;98922.78;;;16.67;61.11
19624;BME280;9959;49.798;9.928;2023-03-23T13:37:05;98926.34;;;17.03;59.63
19624;BME280;9959;49.798;9.928;2023-03-23T13:39:38;98907.28;;;16.68;61.24
19624;BME280;9959;49.798;9.928;2023-03-23T13:50:01;98916.97;;;16.38;59.99
19624;BME280;9959;49.798;9.928;2023-03-23T13:55:21;98923.56;;;16.63;60.04
19624;BME280;9959;49.798;9.928;2023-03-23T14:05:44;98915.38;;;15.43;65.68
19624;BME280;9959;49.798;9.928;2023-03-23T14:08:20;98922.75;;;15.15;66.72
19624;BME280;9959;49.798;9.928;2023-03-23T14:18:37;98913.13;;;15.30;65.81
19624;BME280;9959;49.798;9.928;2023-03-23T14:21:05;98905.06;;;15.45;65.03
19624;BME280;9959;49.798;9.928;2023-03-23T14:23:37;98907.91;;;15.60;64.52
19624;BME280;9959;49.798;9.928;2023-03-23T14:28:39;98916.38;;;15.32;64.92
19624;BME280;9959;49.798;9.928;2023-03-23T14:31:26;98921.91;;;15.47;64.67
19624;BME280;9959;49.798;9.928;2023-03-23T14:33:55;98920.59;;;15.17;65.12
19624;BME280;9959;49.798;9.928;2023-03-23T14:36:27;98920.59;;;15.17;64.88
19624;BME280;9959;49.798;9.928;2023-03-23T14:41:34;98919.00;;;14.89;65.87
19624;BME280;9959;49.798;9.928;2023-03-23T14:44:04;98938.06;;;14.95;65.86
19624;BME280;9959;49.798;9.928;2023-03-23T14:46:33;98938.25;;;14.88;66.01
19624;BME280;9959;49.798;9.928;2023-03-23T14:49:04;98938.97;;;14.78;65.71
19624;BME280;9959;49.798;9.928;2023-03-23T14:51:30;98942.75;;;15.04;64.85
19624;BME280;9959;49.798;9.928;2023-03-23T14:53:59;98934.78;;;14.93;64.26
19624;BME280;9959;49.798;9.928;2023-03-23T14:56:35;98953.81;;;14.98;64.48
19624;BME280;9959;49.798;9.928;2023-03-23T14:59:04;98952.19;;;14.97;64.35
19624;BME280;9959;49.798;9.928;2023-03-23T15:01:36;98954.94;;;14.75;64.75
19624;BME280;9959;49.798;9.928;2023-03-23T15:06:35;98948.47;;;14.76;64.91
19624;BME280;9959;49.798;9.928;2023-03-23T15:09:07;98941.84;;;14.67;64.98
19624;BME280;9959;49.798;9.928;2023-03-23T15:11:35;98954.34;;;14.68;65.40
19624;BME280;9959;49.798;9.928;2023-03-23T15:16:34;98959.53;;;14.47;65.40
19624;BME280;9959;49.798;9.928;2023-03-23T15:21:35;98962.19;;;14.26;66.65
19624;BME280;9959;49.798;9.928;2023-03-23T15:24:33;98965.81;;;14.31;66.93
19624;BME280;9959;49.798;9.928;2023-03-23T15:29:33;98967.19;;;14.12;67.31
19624;BME280;9959;49.798;9.928;2023-03-23T15:32:00;98970.97;;;14.11;67.72
19624;BME280;9959;49.798;9.928;2023-03-23T15:34:36;98957.84;;;14.03;67.86
19624;BME280;9959;49.798;9.928;2023-03-23T15:37:38;98968.38;;;13.99;68.18
19624;BME280;9959;49.798;9.928;2023-03-23T15:40:15;98965.28;;;13.91;70.06
19624;BME280;9959;49.798;9.928;2023-03-23T15:42:43;98963.19;;;13.98;71.46
19624;BME280;9959;49.798;9.928;2023-03-23T15:52:43;98969.25;;;13.83;71.63
19624;BME280;9959;49.798;9.928;2023-03-23T15:55:26;98965.28;;;13.91;71.01